createdAt,value
2016-11-08T00:00:01.360Z,84.08
2016-11-08T00:00:23.077Z,83.90
2016-11-08T00:00:44.799Z,83.95
2016-11-08T00:01:06.526Z,83.69
2016-11-08T00:01:28.249Z,84.07
2016-11-08T00:01:49.966Z,83.93
2016-11-08T00:02:11.687Z,83.64
2016-11-08T00:02:33.431Z,83.90
2016-11-08T00:02:55.151Z,83.85
2016-11-08T00:03:16.879Z,83.62
2016-11-08T00:03:38.614Z,83.61
2016-11-08T00:04:00.340Z,83.59
2016-11-08T00:04:22.071Z,83.68
2016-11-08T00:04:43.787Z,83.67
2016-11-08T00:05:05.520Z,83.61
2016-11-08T00:05:27.242Z,83.59
2016-11-08T00:05:48.968Z,83.66
2016-11-08T00:06:10.686Z,83.73
2016-11-08T00:06:32.402Z,83.66
2016-11-08T00:06:54.136Z,83.40
2016-11-08T00:07:15.866Z,83.61
2016-11-08T00:07:37.593Z,83.45
2016-11-08T00:07:59.319Z,83.47
2016-11-08T00:08:21.039Z,83.49
2016-11-08T00:08:42.773Z,83.52
2016-11-08T00:09:04.502Z,83.57
2016-11-08T00:09:26.227Z,83.88
2016-11-08T00:09:47.947Z,83.52
2016-11-08T00:10:09.667Z,83.67
2016-11-08T00:10:31.391Z,83.51
2016-11-08T00:10:53.114Z,83.49
2016-11-08T00:11:14.867Z,83.48
2016-11-08T00:11:36.583Z,83.37
2016-11-08T00:11:58.307Z,83.32
2016-11-08T00:12:20.027Z,83.66
2016-11-08T00:12:41.755Z,83.55
2016-11-08T00:13:03.479Z,83.53
2016-11-08T00:13:25.206Z,83.52
2016-11-08T00:13:49.478Z,83.62
2016-11-08T00:14:11.195Z,83.46
2016-11-08T00:14:32.921Z,83.59
2016-11-08T00:14:54.652Z,83.34
2016-11-08T00:15:16.386Z,83.27
2016-11-08T00:15:38.254Z,83.35
2016-11-08T00:15:59.971Z,83.45
2016-11-08T00:16:21.696Z,83.32
2016-11-08T00:16:43.412Z,83.28
2016-11-08T00:17:05.131Z,83.34
2016-11-08T00:17:26.866Z,83.49
2016-11-08T00:17:48.592Z,83.21
2016-11-08T00:18:10.327Z,83.36
2016-11-08T00:18:32.051Z,83.28
2016-11-08T00:18:53.776Z,83.48
2016-11-08T00:19:15.498Z,83.31
2016-11-08T00:19:37.230Z,83.03
2016-11-08T00:19:59.057Z,83.16
2016-11-08T00:20:20.779Z,83.14
2016-11-08T00:20:42.508Z,83.03
2016-11-08T00:21:04.250Z,83.04
2016-11-08T00:21:25.977Z,83.00
2016-11-08T00:21:47.700Z,83.01
2016-11-08T00:22:09.451Z,83.22
2016-11-08T00:22:31.164Z,83.06
2016-11-08T00:22:52.898Z,83.19
2016-11-08T00:23:14.619Z,82.99
2016-11-08T00:23:36.348Z,83.21
2016-11-08T00:23:58.065Z,83.05
2016-11-08T00:24:19.802Z,83.13
2016-11-08T00:24:41.684Z,83.09
2016-11-08T00:25:03.415Z,83.02
2016-11-08T00:25:25.133Z,83.23
2016-11-08T00:25:46.864Z,83.41
2016-11-08T00:26:08.588Z,83.09
2016-11-08T00:26:30.315Z,82.86
2016-11-08T00:26:52.033Z,82.98
2016-11-08T00:27:13.767Z,83.24
2016-11-08T00:27:35.523Z,83.21
2016-11-08T00:27:57.275Z,83.16
2016-11-08T00:28:18.999Z,83.15
2016-11-08T00:28:40.728Z,83.18
2016-11-08T00:29:02.455Z,83.04
2016-11-08T00:29:24.189Z,83.12
2016-11-08T00:29:45.907Z,83.16
2016-11-08T00:30:07.624Z,83.15
2016-11-08T00:30:29.363Z,82.73
2016-11-08T00:30:51.090Z,83.02
2016-11-08T00:31:12.839Z,83.22
2016-11-08T00:31:34.556Z,83.01
2016-11-08T00:31:56.275Z,83.06
2016-11-08T00:32:18.001Z,83.10
2016-11-08T00:32:39.720Z,83.24
2016-11-08T00:33:01.449Z,82.97
2016-11-08T00:33:23.179Z,83.08
2016-11-08T00:33:44.907Z,82.74
2016-11-08T00:34:06.622Z,82.54
2016-11-08T00:34:28.345Z,82.78
2016-11-08T00:34:50.068Z,82.84
2016-11-08T00:35:11.793Z,82.78
2016-11-08T00:35:33.515Z,82.88
2016-11-08T00:35:55.247Z,82.87
2016-11-08T00:36:16.964Z,83.00
2016-11-08T00:36:38.681Z,83.00
2016-11-08T00:37:00.414Z,82.93
2016-11-08T00:37:22.144Z,83.23
2016-11-08T00:37:43.869Z,83.05
2016-11-08T00:38:05.586Z,82.78
2016-11-08T00:38:27.321Z,82.74
2016-11-08T00:38:49.042Z,82.84
2016-11-08T00:39:10.761Z,82.81
2016-11-08T00:39:32.562Z,82.85
2016-11-08T00:39:54.285Z,82.72
2016-11-08T00:40:16.003Z,82.63
2016-11-08T00:40:37.720Z,82.70
2016-11-08T00:40:59.465Z,82.85
2016-11-08T00:41:21.187Z,82.78
2016-11-08T00:41:42.907Z,82.78
2016-11-08T00:42:04.632Z,82.74
2016-11-08T00:42:26.357Z,82.64
2016-11-08T00:42:48.076Z,82.77
2016-11-08T00:43:09.799Z,82.73
2016-11-08T00:43:31.520Z,82.70
2016-11-08T00:43:53.246Z,82.86
2016-11-08T00:44:14.965Z,83.03
2016-11-08T00:44:36.686Z,83.00
2016-11-08T00:44:58.416Z,82.73
2016-11-08T00:45:20.132Z,82.78
2016-11-08T00:45:41.869Z,82.89
2016-11-08T00:46:03.586Z,82.73
2016-11-08T00:46:25.313Z,82.70
2016-11-08T00:46:47.044Z,82.84
2016-11-08T00:47:08.765Z,82.87
2016-11-08T00:47:30.483Z,82.64
2016-11-08T00:47:52.202Z,82.73
2016-11-08T00:48:13.948Z,82.67
2016-11-08T00:48:35.682Z,82.65
2016-11-08T00:48:57.447Z,82.80
2016-11-08T00:49:19.273Z,82.88
2016-11-08T00:49:41.003Z,82.50
2016-11-08T00:50:02.742Z,82.64
2016-11-08T00:50:24.490Z,82.85
2016-11-08T00:50:46.211Z,82.96
2016-11-08T00:51:07.945Z,82.77
2016-11-08T00:51:29.675Z,82.67
2016-11-08T00:51:51.405Z,82.84
2016-11-08T00:52:13.136Z,82.62
2016-11-08T00:52:39.621Z,82.61
2016-11-08T00:53:01.337Z,82.82
2016-11-08T00:53:23.057Z,82.60
2016-11-08T00:53:44.786Z,82.62
2016-11-08T00:54:06.504Z,82.49
2016-11-08T00:54:28.225Z,82.54
2016-11-08T00:54:49.954Z,82.73
2016-11-08T00:55:11.673Z,82.43
2016-11-08T00:55:33.407Z,82.55
2016-11-08T00:55:55.123Z,82.67
2016-11-08T00:56:16.868Z,82.87
2016-11-08T00:56:38.586Z,82.65
2016-11-08T00:57:00.308Z,82.90
2016-11-08T00:57:22.024Z,82.93
2016-11-08T00:57:43.750Z,82.79
2016-11-08T00:58:05.513Z,82.74
2016-11-08T00:58:27.242Z,82.80
2016-11-08T00:58:48.968Z,82.54
2016-11-08T00:59:10.683Z,82.54
2016-11-08T00:59:32.426Z,82.66
2016-11-08T00:59:54.158Z,82.94
2016-11-08T01:00:15.881Z,82.96
2016-11-08T01:00:37.619Z,82.96
2016-11-08T01:00:59.331Z,82.68
2016-11-08T01:01:21.048Z,82.87
2016-11-08T01:01:42.773Z,82.86
2016-11-08T01:02:04.496Z,82.65
2016-11-08T01:02:26.236Z,83.02
2016-11-08T01:02:47.928Z,82.71
2016-11-08T01:03:09.651Z,82.66
2016-11-08T01:03:31.372Z,82.86
2016-11-08T01:03:53.089Z,82.91
2016-11-08T01:04:14.811Z,83.17
2016-11-08T01:04:36.540Z,82.83
2016-11-08T01:04:58.259Z,82.72
2016-11-08T01:05:19.982Z,82.72
2016-11-08T01:05:41.705Z,82.74
2016-11-08T01:06:03.431Z,82.77
2016-11-08T01:06:25.151Z,83.04
2016-11-08T01:06:46.889Z,82.66
2016-11-08T01:07:08.619Z,82.63
2016-11-08T01:07:30.333Z,82.63
2016-11-08T01:07:52.054Z,82.74
2016-11-08T01:08:13.787Z,82.80
2016-11-08T01:08:35.505Z,82.80
2016-11-08T01:08:57.226Z,82.74
2016-11-08T01:09:18.943Z,82.75
2016-11-08T01:09:40.745Z,82.94
2016-11-08T01:10:02.467Z,82.88
2016-11-08T01:10:24.188Z,82.98
2016-11-08T01:10:45.906Z,83.04
2016-11-08T01:11:07.628Z,82.90
2016-11-08T01:11:29.358Z,82.96
2016-11-08T01:11:51.091Z,83.28
2016-11-08T01:12:12.825Z,83.35
2016-11-08T01:12:34.545Z,83.13
2016-11-08T01:12:56.269Z,83.28
2016-11-08T01:13:18.007Z,83.05
2016-11-08T01:13:39.718Z,82.76
2016-11-08T01:14:01.575Z,82.83
2016-11-08T01:14:23.294Z,82.80
2016-11-08T01:14:45.018Z,83.01
2016-11-08T01:15:06.749Z,83.09
2016-11-08T01:15:28.547Z,83.04
2016-11-08T01:15:50.276Z,83.05
2016-11-08T01:16:12.011Z,83.00
2016-11-08T01:16:33.718Z,83.20
2016-11-08T01:16:55.446Z,83.31
2016-11-08T01:17:17.171Z,83.10
2016-11-08T01:17:38.903Z,83.13
2016-11-08T01:18:00.635Z,83.13
2016-11-08T01:18:22.376Z,82.99
2016-11-08T01:18:44.121Z,83.00
2016-11-08T01:19:05.896Z,82.87
2016-11-08T01:19:27.625Z,82.93
2016-11-08T01:19:49.346Z,83.17
2016-11-08T01:20:11.069Z,82.95
2016-11-08T01:20:32.797Z,83.10
2016-11-08T01:20:54.518Z,82.94
2016-11-08T01:21:16.238Z,83.06
2016-11-08T01:21:37.965Z,83.16
2016-11-08T01:21:59.689Z,83.11
2016-11-08T01:22:21.412Z,83.42
2016-11-08T01:22:43.137Z,83.10
2016-11-08T01:23:04.860Z,83.32
2016-11-08T01:23:26.617Z,83.21
2016-11-08T01:23:48.338Z,83.07
2016-11-08T01:24:10.067Z,83.20
2016-11-08T01:24:31.786Z,83.16
2016-11-08T01:24:53.514Z,83.25
2016-11-08T01:25:15.237Z,83.15
2016-11-08T01:25:36.977Z,83.01
2016-11-08T01:25:58.697Z,83.36
2016-11-08T01:26:20.419Z,83.08
2016-11-08T01:26:42.141Z,82.93
2016-11-08T01:27:03.860Z,82.95
2016-11-08T01:27:25.603Z,83.03
2016-11-08T01:27:47.319Z,82.99
2016-11-08T01:28:09.038Z,83.20
2016-11-08T01:28:30.757Z,83.39
2016-11-08T01:28:52.486Z,83.25
2016-11-08T01:29:14.211Z,83.72
2016-11-08T01:29:35.925Z,83.51
2016-11-08T01:29:57.669Z,83.05
2016-11-08T01:30:19.394Z,83.18
2016-11-08T01:30:41.109Z,83.17
2016-11-08T01:31:02.831Z,83.19
2016-11-08T01:31:24.553Z,83.44
2016-11-08T01:31:46.275Z,83.32
2016-11-08T01:32:07.996Z,83.21
2016-11-08T01:32:29.714Z,83.19
2016-11-08T01:32:51.436Z,82.98
2016-11-08T01:33:13.155Z,82.77
2016-11-08T01:33:34.873Z,82.93
2016-11-08T01:33:56.592Z,82.93
2016-11-08T01:34:18.326Z,82.98
2016-11-08T01:34:40.075Z,83.16
2016-11-08T01:35:01.801Z,83.11
2016-11-08T01:35:23.523Z,83.02
2016-11-08T01:35:45.243Z,83.04
2016-11-08T01:36:06.958Z,83.10
2016-11-08T01:36:28.679Z,83.30
2016-11-08T01:36:50.413Z,82.93
2016-11-08T01:37:12.154Z,83.17
2016-11-08T01:37:33.873Z,83.02
2016-11-08T01:37:55.589Z,83.10
2016-11-08T01:38:17.362Z,83.27
2016-11-08T01:38:39.098Z,83.06
2016-11-08T01:39:00.826Z,83.19
2016-11-08T01:39:22.549Z,82.96
2016-11-08T01:39:44.278Z,83.05
2016-11-08T01:40:06.001Z,82.92
2016-11-08T01:40:27.723Z,83.19
2016-11-08T01:40:49.442Z,83.07
2016-11-08T01:41:11.160Z,82.99
2016-11-08T01:41:32.882Z,83.08
2016-11-08T01:41:54.598Z,83.21
2016-11-08T01:42:16.314Z,83.03
2016-11-08T01:42:38.054Z,82.96
2016-11-08T01:42:59.762Z,83.13
2016-11-08T01:43:21.476Z,82.99
2016-11-08T01:43:43.195Z,83.02
2016-11-08T01:44:04.927Z,83.14
2016-11-08T01:44:26.645Z,82.98
2016-11-08T01:44:48.372Z,83.08
2016-11-08T01:45:10.101Z,83.03
2016-11-08T01:45:31.821Z,83.14
2016-11-08T01:45:53.540Z,83.33
2016-11-08T01:46:15.259Z,83.13
2016-11-08T01:46:36.978Z,83.26
2016-11-08T01:46:58.703Z,83.32
2016-11-08T01:47:20.485Z,83.32
2016-11-08T01:47:42.203Z,83.40
2016-11-08T01:48:03.919Z,83.17
2016-11-08T01:48:25.639Z,83.18
2016-11-08T01:48:47.363Z,83.37
2016-11-08T01:49:09.083Z,83.39
2016-11-08T01:49:30.816Z,83.32
2016-11-08T01:49:52.539Z,83.40
2016-11-08T01:50:14.254Z,83.26
2016-11-08T01:50:35.984Z,83.51
2016-11-08T01:50:57.714Z,83.10
2016-11-08T01:51:19.435Z,83.20
2016-11-08T01:51:41.156Z,83.11
2016-11-08T01:52:02.871Z,83.14
2016-11-08T01:52:24.592Z,83.10
2016-11-08T01:52:46.318Z,82.91
2016-11-08T01:53:08.032Z,82.82
2016-11-08T01:53:29.748Z,82.82
2016-11-08T01:53:51.517Z,83.02
2016-11-08T01:54:13.243Z,83.04
2016-11-08T01:54:34.970Z,82.90
2016-11-08T01:54:56.688Z,83.01
2016-11-08T01:55:18.419Z,83.06
2016-11-08T01:55:40.140Z,83.13
2016-11-08T01:56:01.865Z,83.22
2016-11-08T01:56:23.592Z,83.26
2016-11-08T01:56:45.341Z,83.33
2016-11-08T01:57:07.067Z,83.48
2016-11-08T01:57:28.785Z,83.13
2016-11-08T01:57:50.614Z,83.22
2016-11-08T01:58:12.334Z,83.14
2016-11-08T01:58:34.054Z,83.27
2016-11-08T01:58:55.782Z,83.22
2016-11-08T01:59:17.516Z,83.32
2016-11-08T01:59:39.241Z,83.13
2016-11-08T02:00:00.965Z,83.05
2016-11-08T02:00:22.688Z,83.24
2016-11-08T02:00:44.409Z,83.21
2016-11-08T02:01:06.136Z,83.26
2016-11-08T02:01:27.858Z,83.54
2016-11-08T02:01:49.573Z,83.07
2016-11-08T02:02:11.468Z,83.24
2016-11-08T02:02:33.064Z,83.60
2016-11-08T02:02:54.789Z,83.50
2016-11-08T02:03:16.506Z,83.17
2016-11-08T02:03:38.336Z,83.30
2016-11-08T02:04:00.056Z,83.29
2016-11-08T02:04:21.772Z,83.35
2016-11-08T02:04:43.492Z,83.34
2016-11-08T02:05:05.210Z,83.49
2016-11-08T02:05:26.932Z,83.38
2016-11-08T02:05:48.652Z,83.40
2016-11-08T02:06:10.373Z,83.41
2016-11-08T02:06:32.103Z,83.35
2016-11-08T02:06:54.127Z,83.28
2016-11-08T02:07:15.847Z,83.24
2016-11-08T02:07:37.564Z,83.22
2016-11-08T02:07:59.290Z,83.41
2016-11-08T02:08:21.010Z,83.30
2016-11-08T02:08:42.728Z,83.23
2016-11-08T02:09:04.467Z,83.38
2016-11-08T02:09:26.181Z,83.27
2016-11-08T02:09:47.949Z,83.39
2016-11-08T02:10:12.125Z,83.31
2016-11-08T02:10:33.900Z,83.34
2016-11-08T02:10:55.644Z,83.40
2016-11-08T02:11:17.360Z,83.56
2016-11-08T02:11:39.080Z,83.12
2016-11-08T02:12:00.802Z,83.42
2016-11-08T02:12:22.519Z,83.47
2016-11-08T02:12:44.247Z,83.63
2016-11-08T02:13:05.962Z,83.46
2016-11-08T02:13:27.682Z,83.71
2016-11-08T02:13:49.423Z,83.32
2016-11-08T02:14:11.141Z,83.49
2016-11-08T02:14:32.861Z,83.37
2016-11-08T02:14:54.583Z,83.67
2016-11-08T02:15:16.305Z,83.40
2016-11-08T02:15:38.040Z,83.48
2016-11-08T02:15:59.758Z,83.43
2016-11-08T02:16:21.485Z,83.55
2016-11-08T02:16:43.203Z,83.73
2016-11-08T02:17:04.921Z,83.83
2016-11-08T02:17:26.646Z,83.67
2016-11-08T02:17:48.363Z,83.58
2016-11-08T02:18:10.090Z,83.56
2016-11-08T02:18:31.811Z,83.41
2016-11-08T02:18:53.556Z,83.70
2016-11-08T02:19:15.269Z,83.56
2016-11-08T02:19:37.006Z,83.61
2016-11-08T02:19:58.755Z,83.59
2016-11-08T02:20:20.477Z,83.60
2016-11-08T02:20:42.203Z,83.63
2016-11-08T02:21:03.928Z,83.46
2016-11-08T02:21:25.640Z,83.42
2016-11-08T02:21:47.368Z,83.50
2016-11-08T02:22:09.090Z,83.83
2016-11-08T02:22:30.812Z,83.66
2016-11-08T02:22:52.531Z,83.80
2016-11-08T02:23:14.249Z,83.64
2016-11-08T02:23:35.975Z,83.55
2016-11-08T02:23:57.697Z,83.65
2016-11-08T02:24:19.434Z,83.69
2016-11-08T02:24:41.162Z,83.72
2016-11-08T02:25:02.892Z,83.81
2016-11-08T02:25:24.615Z,83.86
2016-11-08T02:25:46.340Z,83.78
2016-11-08T02:26:08.059Z,83.82
2016-11-08T02:26:29.790Z,83.80
2016-11-08T02:26:51.509Z,83.81
2016-11-08T02:27:24.840Z,83.85
2016-11-08T02:27:46.571Z,83.77
2016-11-08T02:28:08.289Z,83.54
2016-11-08T02:28:30.017Z,83.57
2016-11-08T02:28:51.741Z,83.60
2016-11-08T02:29:13.462Z,83.68
2016-11-08T02:29:35.184Z,83.63
2016-11-08T02:29:56.914Z,83.85
2016-11-08T02:30:18.633Z,83.90
2016-11-08T02:30:40.354Z,83.89
2016-11-08T02:31:02.082Z,83.92
2016-11-08T02:31:23.804Z,84.01
2016-11-08T02:31:45.526Z,83.79
2016-11-08T02:32:07.244Z,83.76
2016-11-08T02:32:28.966Z,83.69
2016-11-08T02:32:50.690Z,83.68
2016-11-08T02:33:12.431Z,83.80
2016-11-08T02:33:34.158Z,84.00
2016-11-08T02:33:55.867Z,83.73
2016-11-08T02:34:17.613Z,83.57
2016-11-08T02:34:39.364Z,83.94
2016-11-08T02:35:01.102Z,83.95
2016-11-08T02:35:22.829Z,83.97
2016-11-08T02:35:44.546Z,84.08
2016-11-08T02:36:06.272Z,84.09
2016-11-08T02:36:27.995Z,84.29
2016-11-08T02:36:49.727Z,84.61
2016-11-08T02:37:11.472Z,84.24
2016-11-08T02:37:33.189Z,84.02
2016-11-08T02:37:54.910Z,84.30
2016-11-08T02:38:16.632Z,84.24
2016-11-08T02:38:38.354Z,84.19
2016-11-08T02:39:00.074Z,84.45
2016-11-08T02:39:21.802Z,84.01
2016-11-08T02:39:43.531Z,83.92
2016-11-08T02:40:05.255Z,83.94
2016-11-08T02:40:26.976Z,84.02
2016-11-08T02:40:48.695Z,84.00
2016-11-08T02:41:10.417Z,84.39
2016-11-08T02:41:32.152Z,84.02
2016-11-08T02:41:53.859Z,83.97
2016-11-08T02:42:15.591Z,83.96
2016-11-08T02:42:37.312Z,84.31
2016-11-08T02:42:59.050Z,84.00
2016-11-08T02:43:20.767Z,84.02
2016-11-08T02:43:42.499Z,83.93
2016-11-08T02:44:04.216Z,83.76
2016-11-08T02:44:25.947Z,83.75
2016-11-08T02:44:47.666Z,83.95
2016-11-08T02:45:09.391Z,83.88
2016-11-08T02:45:31.119Z,84.06
2016-11-08T02:45:52.839Z,83.93
2016-11-08T02:46:14.569Z,84.00
2016-11-08T02:46:36.308Z,84.16
2016-11-08T02:46:58.049Z,84.07
2016-11-08T02:47:19.782Z,84.00
2016-11-08T02:47:41.516Z,84.26
2016-11-08T02:48:03.229Z,84.27
2016-11-08T02:48:24.964Z,84.19
2016-11-08T02:48:46.695Z,83.98
2016-11-08T02:49:11.374Z,84.16
2016-11-08T02:50:02.636Z,84.02
2016-11-08T02:50:51.933Z,84.26
2016-11-08T02:51:37.942Z,84.24
2016-11-08T02:51:59.668Z,84.59
2016-11-08T02:52:21.503Z,84.50
2016-11-08T02:52:43.236Z,84.33
2016-11-08T02:53:04.950Z,84.34
2016-11-08T02:53:26.673Z,84.56
2016-11-08T02:53:48.397Z,84.23
2016-11-08T02:54:10.117Z,84.37
2016-11-08T02:54:31.840Z,84.38
2016-11-08T02:54:53.563Z,84.35
2016-11-08T02:55:15.293Z,84.29
2016-11-08T02:55:37.015Z,84.13
2016-11-08T02:55:58.738Z,83.97
2016-11-08T02:56:20.458Z,83.92
2016-11-08T02:56:42.300Z,83.99
2016-11-08T02:57:04.045Z,83.84
2016-11-08T02:57:25.751Z,83.74
2016-11-08T02:57:47.474Z,83.77
2016-11-08T02:58:09.200Z,83.85
2016-11-08T02:58:30.919Z,83.86
2016-11-08T02:58:52.653Z,83.86
2016-11-08T02:59:14.377Z,84.07
2016-11-08T02:59:39.028Z,84.32
2016-11-08T03:00:00.751Z,84.64
2016-11-08T03:00:22.469Z,84.48
2016-11-08T03:00:44.206Z,84.38
2016-11-08T03:01:05.934Z,84.13
2016-11-08T03:01:27.671Z,84.03
2016-11-08T03:01:49.384Z,84.23
2016-11-08T03:02:11.113Z,84.33
2016-11-08T03:02:32.833Z,84.34
2016-11-08T03:02:54.578Z,84.31
2016-11-08T03:03:16.308Z,84.38
2016-11-08T03:03:38.026Z,84.25
2016-11-08T03:03:59.740Z,84.52
2016-11-08T03:04:21.479Z,84.70
2016-11-08T03:04:43.199Z,84.50
2016-11-08T03:05:04.922Z,84.53
2016-11-08T03:05:26.667Z,84.47
2016-11-08T03:05:48.393Z,84.55
2016-11-08T03:06:10.115Z,84.67
2016-11-08T03:06:31.849Z,84.65
2016-11-08T03:06:53.784Z,84.49
2016-11-08T03:07:15.545Z,84.52
2016-11-08T03:07:37.279Z,84.42
2016-11-08T03:07:58.990Z,84.34
2016-11-08T03:08:20.711Z,84.36
2016-11-08T03:08:42.432Z,84.64
2016-11-08T03:09:04.154Z,84.68
2016-11-08T03:09:25.878Z,84.51
2016-11-08T03:09:47.599Z,84.30
2016-11-08T03:10:09.326Z,84.46
2016-11-08T03:10:33.254Z,84.54
2016-11-08T03:10:54.996Z,84.47
2016-11-08T03:11:16.722Z,84.56
2016-11-08T03:11:38.444Z,84.60
2016-11-08T03:12:00.168Z,84.76
2016-11-08T03:12:21.900Z,84.69
2016-11-08T03:12:43.624Z,84.77
2016-11-08T03:13:05.343Z,84.57
2016-11-08T03:13:27.077Z,84.59
2016-11-08T03:13:48.808Z,84.76
2016-11-08T03:14:10.540Z,84.44
2016-11-08T03:14:32.262Z,84.51
2016-11-08T03:14:53.996Z,84.36
2016-11-08T03:15:15.722Z,84.29
2016-11-08T03:15:37.443Z,84.39
2016-11-08T03:15:59.180Z,84.87
2016-11-08T03:16:20.892Z,84.46
2016-11-08T03:16:42.610Z,84.51
2016-11-08T03:17:04.335Z,84.61
2016-11-08T03:17:26.056Z,84.53
2016-11-08T03:17:47.779Z,84.74
2016-11-08T03:18:09.511Z,84.70
2016-11-08T03:18:31.237Z,84.66
2016-11-08T03:18:52.960Z,84.50
2016-11-08T03:19:14.681Z,84.46
2016-11-08T03:19:36.401Z,84.65
2016-11-08T03:19:58.121Z,84.78
2016-11-08T03:20:19.842Z,84.80
2016-11-08T03:20:41.621Z,85.11
2016-11-08T03:21:03.352Z,84.92
2016-11-08T03:21:25.071Z,84.79
2016-11-08T03:21:46.803Z,84.67
2016-11-08T03:22:08.527Z,84.67
2016-11-08T03:22:30.265Z,84.88
2016-11-08T03:22:51.991Z,84.97
2016-11-08T03:23:13.711Z,85.24
2016-11-08T03:23:35.431Z,85.03
2016-11-08T03:23:57.166Z,84.87
2016-11-08T03:24:18.916Z,84.89
2016-11-08T03:24:40.602Z,85.03
2016-11-08T03:25:02.322Z,84.92
2016-11-08T03:25:24.063Z,84.74
2016-11-08T03:25:45.761Z,84.72
2016-11-08T03:26:07.484Z,84.94
2016-11-08T03:26:29.200Z,84.93
2016-11-08T03:26:50.921Z,85.02
2016-11-08T03:27:12.649Z,85.15
2016-11-08T03:27:34.387Z,85.19
2016-11-08T03:27:56.113Z,85.35
2016-11-08T03:28:17.832Z,85.14
2016-11-08T03:28:39.558Z,85.04
2016-11-08T03:29:01.279Z,85.08
2016-11-08T03:29:22.998Z,84.90
2016-11-08T03:29:44.719Z,85.05
2016-11-08T03:30:06.439Z,85.12
2016-11-08T03:30:28.167Z,85.13
2016-11-08T03:30:49.887Z,85.03
2016-11-08T03:31:11.605Z,84.89
2016-11-08T03:31:33.325Z,84.94
2016-11-08T03:31:55.063Z,85.05
2016-11-08T03:32:16.781Z,85.08
2016-11-08T03:32:38.509Z,85.07
2016-11-08T03:33:00.246Z,85.08
2016-11-08T03:33:21.991Z,85.04
2016-11-08T03:33:43.711Z,85.08
2016-11-08T03:34:05.428Z,85.28
2016-11-08T03:34:27.162Z,85.70
2016-11-08T03:34:48.891Z,85.41
2016-11-08T03:35:10.617Z,85.38
2016-11-08T03:35:32.337Z,85.25
2016-11-08T03:35:54.065Z,85.14
2016-11-08T03:36:15.785Z,85.08
2016-11-08T03:36:37.504Z,85.11
2016-11-08T03:36:59.222Z,85.30
2016-11-08T03:37:20.955Z,85.07
2016-11-08T03:37:42.691Z,85.00
2016-11-08T03:38:04.411Z,85.16
2016-11-08T03:38:26.128Z,85.07
2016-11-08T03:38:47.860Z,85.07
2016-11-08T03:39:09.586Z,84.88
2016-11-08T03:39:31.308Z,84.74
2016-11-08T03:39:53.033Z,84.75
2016-11-08T03:40:14.758Z,84.85
2016-11-08T03:40:36.490Z,85.12
2016-11-08T03:40:58.221Z,84.84
2016-11-08T03:41:19.942Z,84.69
2016-11-08T03:41:41.665Z,84.99
2016-11-08T03:42:03.391Z,85.17
2016-11-08T03:42:25.123Z,85.13
2016-11-08T03:42:46.843Z,85.27
2016-11-08T03:43:08.570Z,85.50
2016-11-08T03:43:30.289Z,85.38
2016-11-08T03:43:52.035Z,85.44
2016-11-08T03:44:13.757Z,85.39
2016-11-08T03:44:35.478Z,85.51
2016-11-08T03:44:57.201Z,85.28
2016-11-08T03:45:18.922Z,85.18
2016-11-08T03:45:40.651Z,85.23
2016-11-08T03:46:02.387Z,85.44
2016-11-08T03:46:24.106Z,85.47
2016-11-08T03:46:45.826Z,85.40
2016-11-08T03:47:07.559Z,85.39
2016-11-08T03:47:29.280Z,85.43
2016-11-08T03:47:51.007Z,85.52
2016-11-08T03:48:12.727Z,85.57
2016-11-08T03:48:34.601Z,85.42
2016-11-08T03:48:56.314Z,85.15
2016-11-08T03:49:18.058Z,85.09
2016-11-08T03:49:39.787Z,85.08
2016-11-08T03:50:01.506Z,85.31
2016-11-08T03:50:23.222Z,85.19
2016-11-08T03:50:44.961Z,85.16
2016-11-08T03:51:06.683Z,85.51
2016-11-08T03:51:28.405Z,85.30
2016-11-08T03:51:50.124Z,85.20
2016-11-08T03:52:11.851Z,85.21
2016-11-08T03:52:33.575Z,85.19
2016-11-08T03:52:55.288Z,85.18
2016-11-08T03:53:17.141Z,85.23
2016-11-08T03:53:38.866Z,85.38
2016-11-08T03:54:00.601Z,85.22
2016-11-08T03:54:22.346Z,85.22
2016-11-08T03:54:44.078Z,85.17
2016-11-08T03:55:05.810Z,85.01
2016-11-08T03:55:27.532Z,84.97
2016-11-08T03:55:49.273Z,85.19
2016-11-08T03:56:10.993Z,85.00
2016-11-08T03:56:32.737Z,84.94
2016-11-08T03:56:54.464Z,84.94
2016-11-08T03:57:16.184Z,84.73
2016-11-08T03:57:37.944Z,84.71
2016-11-08T03:57:59.656Z,84.84
2016-11-08T03:58:21.382Z,84.93
2016-11-08T03:58:43.103Z,84.93
2016-11-08T03:59:04.826Z,85.25
2016-11-08T03:59:26.560Z,85.17
2016-11-08T03:59:48.290Z,85.19
2016-11-08T04:00:10.011Z,85.11
2016-11-08T04:00:31.732Z,85.03
2016-11-08T04:00:53.598Z,85.11
2016-11-08T04:01:15.317Z,84.91
2016-11-08T04:01:37.035Z,84.91
2016-11-08T04:01:58.758Z,85.06
2016-11-08T04:02:20.477Z,85.12
2016-11-08T04:02:42.201Z,85.10
2016-11-08T04:03:03.930Z,85.17
2016-11-08T04:03:25.647Z,85.17
2016-11-08T04:03:47.374Z,85.14
2016-11-08T04:04:09.103Z,85.07
2016-11-08T04:04:30.842Z,85.27
2016-11-08T04:04:52.574Z,85.14
2016-11-08T04:05:14.313Z,84.96
2016-11-08T04:05:36.031Z,84.99
2016-11-08T04:05:57.749Z,84.96
2016-11-08T04:06:19.471Z,84.81
2016-11-08T04:06:41.189Z,84.96
2016-11-08T04:07:02.908Z,84.80
2016-11-08T04:07:24.628Z,85.04
2016-11-08T04:07:46.349Z,85.10
2016-11-08T04:08:08.067Z,85.13
2016-11-08T04:08:29.786Z,84.92
2016-11-08T04:08:51.507Z,84.74
2016-11-08T04:09:13.251Z,84.91
2016-11-08T04:09:34.971Z,85.01
2016-11-08T04:09:56.693Z,84.94
2016-11-08T04:10:18.412Z,85.06
2016-11-08T04:10:40.134Z,85.38
2016-11-08T04:11:01.855Z,85.40
2016-11-08T04:11:23.578Z,85.54
2016-11-08T04:11:45.298Z,85.23
2016-11-08T04:12:07.020Z,85.31
2016-11-08T04:12:28.752Z,85.25
2016-11-08T04:12:50.477Z,85.37
2016-11-08T04:13:12.199Z,85.26
2016-11-08T04:13:33.921Z,84.98
2016-11-08T04:13:55.651Z,85.02
2016-11-08T04:14:17.367Z,85.03
2016-11-08T04:14:39.092Z,85.16
2016-11-08T04:15:00.812Z,85.32
2016-11-08T04:15:22.542Z,85.44
2016-11-08T04:15:44.266Z,85.11
2016-11-08T04:16:05.994Z,85.00
2016-11-08T04:16:27.717Z,85.15
2016-11-08T04:16:49.443Z,85.36
2016-11-08T04:17:11.162Z,85.20
2016-11-08T04:17:32.888Z,85.32
2016-11-08T04:17:54.598Z,85.27
2016-11-08T04:18:16.335Z,85.26
2016-11-08T04:18:38.052Z,85.10
2016-11-08T04:18:59.900Z,85.23
2016-11-08T04:19:21.686Z,85.20
2016-11-08T04:19:43.407Z,85.02
2016-11-08T04:20:05.125Z,85.09
2016-11-08T04:20:26.843Z,85.03
2016-11-08T04:20:48.568Z,84.87
2016-11-08T04:21:10.300Z,84.91
2016-11-08T04:21:32.033Z,85.32
2016-11-08T04:21:53.759Z,85.33
2016-11-08T04:22:15.479Z,85.12
2016-11-08T04:22:41.974Z,85.15
2016-11-08T04:23:03.692Z,85.28
2016-11-08T04:23:25.435Z,85.04
2016-11-08T04:23:47.348Z,84.90
2016-11-08T04:24:09.066Z,85.08
2016-11-08T04:24:30.796Z,84.84
2016-11-08T04:24:52.523Z,84.87
2016-11-08T04:25:14.240Z,84.79
2016-11-08T04:25:35.959Z,84.84
2016-11-08T04:25:57.680Z,84.92
2016-11-08T04:26:19.411Z,85.09
2016-11-08T04:26:41.154Z,85.19
2016-11-08T04:27:02.875Z,85.07
2016-11-08T04:27:24.604Z,85.15
2016-11-08T04:27:46.326Z,85.24
2016-11-08T04:28:09.050Z,84.89
2016-11-08T04:28:30.768Z,85.05
2016-11-08T04:28:52.522Z,84.95
2016-11-08T04:29:14.242Z,84.94
2016-11-08T04:29:35.967Z,85.00
2016-11-08T04:29:57.687Z,84.69
2016-11-08T04:30:19.404Z,84.51
2016-11-08T04:30:41.121Z,84.59
2016-11-08T04:31:02.844Z,84.83
2016-11-08T04:31:24.604Z,84.90
2016-11-08T04:31:46.302Z,84.88
2016-11-08T04:32:08.111Z,84.91
2016-11-08T04:32:29.839Z,84.85
2016-11-08T04:32:51.560Z,85.03
2016-11-08T04:33:13.319Z,85.04
2016-11-08T04:34:01.525Z,85.02
2016-11-08T04:34:23.248Z,84.90
2016-11-08T04:34:45.063Z,84.87
2016-11-08T04:35:06.813Z,84.76
2016-11-08T04:35:28.540Z,84.92
2016-11-08T04:35:50.261Z,84.90
2016-11-08T04:36:11.983Z,85.00
2016-11-08T04:36:33.706Z,84.99
2016-11-08T04:36:55.428Z,85.32
2016-11-08T04:37:17.148Z,85.15
2016-11-08T04:37:43.745Z,84.79
2016-11-08T04:38:05.463Z,84.73
2016-11-08T04:38:27.188Z,84.74
2016-11-08T04:38:48.914Z,84.70
2016-11-08T04:39:10.632Z,84.71
2016-11-08T04:39:32.363Z,84.68
2016-11-08T04:39:54.174Z,84.80
2016-11-08T04:40:15.890Z,84.88
2016-11-08T04:40:37.709Z,84.93
2016-11-08T04:40:59.430Z,85.22
2016-11-08T04:41:21.147Z,85.11
2016-11-08T04:41:42.882Z,85.00
2016-11-08T04:42:04.617Z,85.00